Time;durP1;ratioP1;P1;durP2;ratioP2;P2;SDS_P1;SDS_P2;PMS_P1;PMS_P2;Temp;Humidity;BMP_temperature;BMP_pressure;BME280_temperature;BME280_humidity;BME280_pressure;Samples;Min_cycle;Max_cycle;Signal;HPM_P1;HPM_P2
2023/05/30 00:02:06;;;;;;;;;;;11.10;99.90;;;;;;4897329;29;20397;-79
2023/05/30 00:04:31;;;;;;;;;;;11.10;99.90;;;;;;4900836;29;20305;-79
2023/05/30 00:06:57;;;;;;;;;;;11.20;99.90;;;;;;4906298;29;20274;-80
2023/05/30 00:09:23;;;;;;;;;;;11.10;99.90;;;;;;4924037;29;20307;-79
2023/05/30 00:11:49;;;;;;;;;;;11.10;99.90;;;;;;4910749;29;19931;-79
2023/05/30 00:14:20;;;;;;;;;;;11.00;99.90;;;;;;4930559;29;19935;-80
2023/05/30 00:16:46;;;;;;;;;;;11.00;99.90;;;;;;4925610;29;19951;-79
2023/05/30 00:19:11;;;;;;;;;;;11.10;99.90;;;;;;4933192;29;20025;-79
2023/05/30 00:21:37;;;;;;;;;;;11.10;99.90;;;;;;4927487;29;20400;-79
2023/05/30 00:24:04;;;;;;;;;;;11.40;99.90;;;;;;4931692;29;19927;-79
2023/05/30 00:26:30;;;;;;;;;;;11.10;99.90;;;;;;4908312;29;20342;-80
2023/05/30 00:28:56;;;;;;;;;;;11.00;99.90;;;;;;4887390;29;20405;-81
2023/05/30 00:31:21;;;;;;;;;;;11.20;99.90;;;;;;4911816;29;19927;-80
2023/05/30 00:33:46;;;;;;;;;;;11.00;99.90;;;;;;4921938;29;19937;-80
2023/05/30 00:36:12;;;;;;;;;;;11.00;99.90;;;;;;4903624;29;20017;-79
2023/05/30 00:38:39;;;;;;;;;;;10.90;99.90;;;;;;4924194;29;20389;-79
2023/05/30 00:41:05;;;;;;;;;;;10.90;99.90;;;;;;4917592;29;19928;-79
2023/05/30 00:43:30;;;;;;;;;;;10.90;99.90;;;;;;4914901;29;19927;-80
2023/05/30 00:45:56;;;;;;;;;;;11.00;99.90;;;;;;4921266;29;20334;-80
2023/05/30 00:48:22;;;;;;;;;;;11.00;99.90;;;;;;4921326;29;19931;-81
2023/05/30 00:50:48;;;;;;;;;;;10.90;99.90;;;;;;4896484;29;19931;-79
2023/05/30 00:53:15;;;;;;;;;;;11.00;99.90;;;;;;4933413;29;19927;-80
2023/05/30 00:55:40;;;;;;;;;;;11.00;99.90;;;;;;4921498;29;19927;-77
2023/05/30 00:58:06;;;;;;;;;;;10.90;99.90;;;;;;4910964;29;19930;-79
2023/05/30 01:00:37;;;;;;;;;;;10.90;99.90;;;;;;4910169;29;19926;-79
2023/05/30 01:03:03;;;;;;;;;;;10.90;99.90;;;;;;4920873;29;19978;-80
2023/05/30 01:05:28;;;;;;;;;;;10.90;99.90;;;;;;4916294;29;20382;-79
2023/05/30 01:07:54;;;;;;;;;;;10.90;99.90;;;;;;4918123;29;20373;-78
2023/05/30 01:10:20;;;;;;;;;;;10.90;99.90;;;;;;4922872;29;19924;-80
2023/05/30 01:12:52;;;;;;;;;;;10.90;99.90;;;;;;4921817;29;19934;-80
2023/05/30 01:15:17;;;;;;;;;;;10.90;99.90;;;;;;4932503;29;19931;-79
2023/05/30 01:17:55;;;;;;;;;;;10.90;99.90;;;;;;4921670;29;19943;-80
2023/05/30 01:20:24;;;;;;;;;;;10.90;99.90;;;;;;4927107;29;19928;-79
2023/05/30 01:22:53;;;;;;;;;;;11.00;99.90;;;;;;4904334;29;20421;-79
2023/05/30 01:25:35;;;;;;;;;;;10.90;99.90;;;;;;4924967;29;19927;-80
2023/05/30 01:28:03;;;;;;;;;;;10.90;99.90;;;;;;4916483;29;19927;-80
2023/05/30 01:30:29;;;;;;;;;;;10.90;99.90;;;;;;4909229;29;19928;-80
2023/05/30 01:32:55;;;;;;;;;;;10.90;99.90;;;;;;4893494;29;19931;-80
2023/05/30 01:35:24;;;;;;;;;;;11.00;99.90;;;;;;4913621;29;19934;-81
2023/05/30 01:37:50;;;;;;;;;;;11.00;99.90;;;;;;4916070;29;19934;-80
2023/05/30 01:40:19;;;;;;;;;;;10.90;99.90;;;;;;4911344;29;20391;-80
2023/05/30 01:42:45;;;;;;;;;;;10.90;99.90;;;;;;4903770;29;19936;-79
2023/05/30 01:45:13;;;;;;;;;;;11.10;99.90;;;;;;4922643;29;20014;-79
2023/05/30 01:47:39;;;;;;;;;;;11.00;99.90;;;;;;4932293;29;19931;-79
2023/05/30 01:50:10;;;;;;;;;;;11.00;99.90;;;;;;4928097;29;19955;-80
2023/05/30 01:52:38;;;;;;;;;;;11.00;99.90;;;;;;4934658;29;19970;-80
2023/05/30 01:55:05;;;;;;;;;;;11.10;99.90;;;;;;4936114;29;19928;-80
2023/05/30 01:57:31;;;;;;;;;;;11.00;99.90;;;;;;4927481;29;19930;-79
2023/05/30 02:00:00;;;;;;;;;;;11.00;99.90;;;;;;4929100;29;19957;-80
2023/05/30 02:02:26;;;;;;;;;;;11.00;99.90;;;;;;4911785;29;19927;-80
2023/05/30 02:04:51;;;;;;;;;;;11.30;99.90;;;;;;4921729;29;19942;-80
2023/05/30 02:07:17;;;;;;;;;;;11.00;99.90;;;;;;4931070;29;20021;-79
2023/05/30 02:09:42;;;;;;;;;;;11.00;99.90;;;;;;4932696;29;19950;-81
2023/05/30 02:12:08;;;;;;;;;;;11.00;99.90;;;;;;4922076;29;19939;-80
2023/05/30 02:14:33;;;;;;;;;;;11.00;99.90;;;;;;4919269;29;19927;-80
2023/05/30 02:16:59;;;;;;;;;;;11.00;99.90;;;;;;4905108;29;19952;-79
2023/05/30 02:19:25;;;;;;;;;;;11.00;99.90;;;;;;4920937;29;20632;-80
2023/05/30 02:21:50;;;;;;;;;;;11.00;99.90;;;;;;4928165;29;19986;-80
2023/05/30 02:24:16;;;;;;;;;;;11.00;99.90;;;;;;4921603;29;20357;-80
2023/05/30 02:26:41;;;;;;;;;;;11.00;99.90;;;;;;4921972;29;19987;-80
2023/05/30 02:29:07;;;;;;;;;;;11.00;99.90;;;;;;4900598;29;19978;-80
2023/05/30 02:31:32;;;;;;;;;;;11.00;99.90;;;;;;4915840;29;19998;-79
2023/05/30 02:33:58;;;;;;;;;;;11.10;99.90;;;;;;4918124;29;19927;-79
2023/05/30 02:36:23;;;;;;;;;;;11.50;99.90;;;;;;4898211;29;20079;-80
2023/05/30 02:38:49;;;;;;;;;;;11.00;99.90;;;;;;4907390;29;20412;-79
2023/05/30 02:41:14;;;;;;;;;;;10.90;99.90;;;;;;4911088;29;20332;-80
2023/05/30 02:43:40;;;;;;;;;;;11.20;99.90;;;;;;4920318;29;19934;-79
2023/05/30 02:46:06;;;;;;;;;;;11.00;99.90;;;;;;4921160;29;19935;-79
2023/05/30 02:48:31;;;;;;;;;;;11.00;99.90;;;;;;4917941;29;19974;-79
2023/05/30 02:50:57;;;;;;;;;;;11.00;99.90;;;;;;4885277;29;20026;-78
2023/05/30 02:53:22;;;;;;;;;;;11.00;99.90;;;;;;4919435;29;19974;-80
2023/05/30 02:55:48;;;;;;;;;;;10.90;99.90;;;;;;4917304;29;19935;-78
2023/05/30 02:58:14;;;;;;;;;;;10.90;99.90;;;;;;4912841;29;20009;-79
2023/05/30 03:00:40;;;;;;;;;;;11.00;99.90;;;;;;4917280;29;19970;-78
2023/05/30 03:03:08;;;;;;;;;;;10.90;99.90;;;;;;4924147;29;20006;-78
2023/05/30 03:05:34;;;;;;;;;;;10.90;99.90;;;;;;4915482;29;19927;-81
2023/05/30 03:08:00;;;;;;;;;;;11.00;99.90;;;;;;4891848;29;20485;-79
2023/05/30 03:10:26;;;;;;;;;;;11.00;99.90;;;;;;4905565;29;19924;-79
2023/05/30 03:12:51;;;;;;;;;;;11.00;99.90;;;;;;4927152;29;19993;-79
2023/05/30 03:15:20;;;;;;;;;;;11.00;99.90;;;;;;4930683;29;19938;-79
2023/05/30 03:17:46;;;;;;;;;;;11.00;99.90;;;;;;4928579;29;19934;-79
2023/05/30 03:20:12;;;;;;;;;;;10.90;99.90;;;;;;4926923;29;19959;-80
2023/05/30 03:22:38;;;;;;;;;;;10.90;99.90;;;;;;4931267;29;19931;-80
2023/05/30 03:25:05;;;;;;;;;;;10.90;99.90;;;;;;4929623;29;19927;-79
2023/05/30 03:27:30;;;;;;;;;;;11.00;99.90;;;;;;4924740;29;19971;-80
2023/05/30 03:29:56;;;;;;;;;;;11.00;99.90;;;;;;4933816;29;19934;-79
2023/05/30 03:32:22;;;;;;;;;;;10.90;99.90;;;;;;4932830;29;19934;-79
2023/05/30 03:34:47;;;;;;;;;;;11.10;99.90;;;;;;4932977;29;19938;-79
2023/05/30 03:37:13;;;;;;;;;;;11.00;99.90;;;;;;4949979;29;19927;-80
2023/05/30 03:39:38;;;;;;;;;;;11.00;99.90;;;;;;4933695;29;19973;-79
2023/05/30 03:42:04;;;;;;;;;;;10.90;99.90;;;;;;4927726;29;19928;-79
2023/05/30 03:44:30;;;;;;;;;;;10.90;99.90;;;;;;4930693;29;19950;-79
2023/05/30 03:46:55;;;;;;;;;;;11.20;99.90;;;;;;4930842;29;19927;-79
2023/05/30 03:49:21;;;;;;;;;;;11.00;99.90;;;;;;4897581;29;20385;-79
2023/05/30 03:51:46;;;;;;;;;;;11.00;99.90;;;;;;4943371;29;20301;-79
2023/05/30 03:54:12;;;;;;;;;;;11.00;99.90;;;;;;4919568;29;19982;-80
2023/05/30 03:56:38;;;;;;;;;;;11.20;99.90;;;;;;4926393;29;19931;-79
2023/05/30 03:59:03;;;;;;;;;;;11.00;99.90;;;;;;4929928;29;20290;-80
2023/05/30 04:01:30;;;;;;;;;;;11.10;99.90;;;;;;4924459;29;19928;-79
2023/05/30 04:03:56;;;;;;;;;;;11.10;99.90;;;;;;4924026;29;19939;-80
2023/05/30 04:06:24;;;;;;;;;;;11.20;99.90;;;;;;4914829;29;19951;-80
2023/05/30 04:08:50;;;;;;;;;;;11.10;99.90;;;;;;4923144;29;19927;-79
2023/05/30 04:11:15;;;;;;;;;;;11.20;99.90;;;;;;4930584;29;20397;-79
2023/05/30 04:13:41;;;;;;;;;;;11.20;99.90;;;;;;4921028;29;19927;-80
2023/05/30 04:16:06;;;;;;;;;;;11.20;99.90;;;;;;4923519;29;19951;-79
2023/05/30 04:18:32;;;;;;;;;;;11.40;99.90;;;;;;4906304;29;19931;-80
2023/05/30 04:20:57;;;;;;;;;;;11.20;99.90;;;;;;4908979;29;19938;-79
2023/05/30 04:23:23;;;;;;;;;;;11.20;99.90;;;;;;4930025;29;19938;-79
2023/05/30 04:25:49;;;;;;;;;;;11.20;99.90;;;;;;4925914;29;19927;-79
2023/05/30 04:28:19;;;;;;;;;;;11.30;99.90;;;;;;4930779;29;19927;-80
2023/05/30 04:30:48;;;;;;;;;;;11.30;99.90;;;;;;4921131;29;19934;-79
2023/05/30 04:33:15;;;;;;;;;;;11.30;99.90;;;;;;4922881;29;19928;-80
2023/05/30 04:35:42;;;;;;;;;;;11.30;99.90;;;;;;4916017;29;19952;-80
2023/05/30 04:38:07;;;;;;;;;;;11.40;99.90;;;;;;4907388;29;19974;-80
2023/05/30 04:40:33;;;;;;;;;;;11.40;99.90;;;;;;4921999;29;19966;-81
2023/05/30 04:42:59;;;;;;;;;;;11.30;99.90;;;;;;4921613;29;19967;-79
2023/05/30 04:45:28;;;;;;;;;;;11.40;99.90;;;;;;4911851;29;19935;-80
2023/05/30 04:47:54;;;;;;;;;;;11.30;99.90;;;;;;4922456;29;19931;-81
2023/05/30 04:50:20;;;;;;;;;;;11.40;99.90;;;;;;4926458;29;19927;-80
2023/05/30 04:52:46;;;;;;;;;;;11.30;99.90;;;;;;4901237;29;19927;-80
2023/05/30 04:55:12;;;;;;;;;;;11.30;99.90;;;;;;4931812;29;19951;-79
2023/05/30 04:57:38;;;;;;;;;;;11.40;99.90;;;;;;4933813;29;19981;-79
2023/05/30 05:00:05;;;;;;;;;;;11.30;99.90;;;;;;4925761;29;19935;-80
2023/05/30 05:02:30;;;;;;;;;;;11.30;99.90;;;;;;4922014;29;19935;-80
2023/05/30 05:04:56;;;;;;;;;;;11.30;99.90;;;;;;4902687;29;20120;-79
2023/05/30 05:07:21;;;;;;;;;;;11.30;99.90;;;;;;4928379;29;20346;-79
2023/05/30 05:09:50;;;;;;;;;;;11.30;99.90;;;;;;4930094;29;20030;-79
2023/05/30 05:12:16;;;;;;;;;;;11.30;99.90;;;;;;4930751;29;19974;-81
2023/05/30 05:14:42;;;;;;;;;;;11.30;99.90;;;;;;4926751;29;19927;-79
2023/05/30 05:17:07;;;;;;;;;;;11.30;99.90;;;;;;4931020;29;19931;-79
2023/05/30 05:19:34;;;;;;;;;;;11.30;99.90;;;;;;4921458;29;19933;-79
2023/05/30 05:22:02;;;;;;;;;;;11.50;99.90;;;;;;4938824;29;19928;-80
2023/05/30 05:24:28;;;;;;;;;;;11.50;99.90;;;;;;4930248;29;19999;-79
2023/05/30 05:26:53;;;;;;;;;;;11.40;99.90;;;;;;4924501;29;19927;-80
2023/05/30 05:29:19;;;;;;;;;;;11.50;99.90;;;;;;4933403;29;19927;-80
2023/05/30 05:31:45;;;;;;;;;;;11.50;99.90;;;;;;4926161;29;19928;-79
2023/05/30 05:34:11;;;;;;;;;;;11.60;99.90;;;;;;4920541;29;19938;-80
2023/05/30 05:36:36;;;;;;;;;;;11.50;99.90;;;;;;4931427;29;19935;-82
2023/05/30 05:39:02;;;;;;;;;;;11.50;99.90;;;;;;4935326;29;19926;-80
2023/05/30 05:41:28;;;;;;;;;;;11.40;99.90;;;;;;4931117;29;19931;-81
2023/05/30 05:43:54;;;;;;;;;;;11.40;99.90;;;;;;4914104;29;19927;-81
2023/05/30 05:46:19;;;;;;;;;;;11.50;99.90;;;;;;4928854;29;19923;-81
2023/05/30 05:48:45;;;;;;;;;;;11.50;99.90;;;;;;4928796;29;20028;-80
2023/05/30 05:51:11;;;;;;;;;;;11.40;99.90;;;;;;4920180;29;19938;-80
2023/05/30 05:53:37;;;;;;;;;;;11.40;99.90;;;;;;4925625;29;19927;-80
2023/05/30 05:56:02;;;;;;;;;;;11.40;99.90;;;;;;4936898;29;19927;-79
2023/05/30 05:58:28;;;;;;;;;;;11.40;99.90;;;;;;4933169;29;19954;-80
2023/05/30 06:00:53;;;;;;;;;;;11.50;99.90;;;;;;4927753;29;19934;-80
2023/05/30 06:03:19;;;;;;;;;;;11.40;99.90;;;;;;4928154;29;19934;-81
2023/05/30 06:05:45;;;;;;;;;;;11.40;99.90;;;;;;4930040;29;20378;-81
2023/05/30 06:08:10;;;;;;;;;;;11.40;99.90;;;;;;4913084;29;19931;-80
2023/05/30 06:10:36;;;;;;;;;;;11.40;99.90;;;;;;4928022;29;19934;-80
2023/05/30 06:13:01;;;;;;;;;;;11.50;99.90;;;;;;4929692;29;19928;-81
2023/05/30 06:15:27;;;;;;;;;;;11.40;99.90;;;;;;4924662;29;20283;-80
2023/05/30 06:17:52;;;;;;;;;;;11.50;99.90;;;;;;4929720;29;19927;-80
2023/05/30 06:20:18;;;;;;;;;;;11.50;99.90;;;;;;4928379;29;19935;-81
2023/05/30 06:22:43;;;;;;;;;;;11.50;99.90;;;;;;4926960;29;20420;-80
2023/05/30 06:25:09;;;;;;;;;;;11.50;99.90;;;;;;4922691;29;19930;-81
2023/05/30 06:27:35;;;;;;;;;;;11.40;99.90;;;;;;4903025;29;20337;-80
2023/05/30 06:30:00;;;;;;;;;;;11.40;99.90;;;;;;4920086;29;19927;-81
2023/05/30 06:32:26;;;;;;;;;;;11.80;99.90;;;;;;4904281;29;20282;-80
2023/05/30 06:34:51;;;;;;;;;;;11.50;99.90;;;;;;4899506;29;20360;-80
2023/05/30 06:37:17;;;;;;;;;;;11.50;99.90;;;;;;4903212;29;19931;-80
2023/05/30 06:39:43;;;;;;;;;;;11.50;99.90;;;;;;4919544;29;19933;-80
2023/05/30 06:42:09;;;;;;;;;;;11.90;99.90;;;;;;4908767;29;19934;-80
2023/05/30 06:44:34;;;;;;;;;;;11.50;99.90;;;;;;4923272;29;19943;-80
2023/05/30 06:47:00;;;;;;;;;;;11.50;99.90;;;;;;4912177;29;19990;-81
2023/05/30 06:49:26;;;;;;;;;;;11.50;99.90;;;;;;4927937;29;20292;-80
2023/05/30 06:51:51;;;;;;;;;;;11.50;99.90;;;;;;4923234;29;20016;-81
2023/05/30 06:54:17;;;;;;;;;;;11.40;99.90;;;;;;4924956;29;19931;-82
2023/05/30 06:56:42;;;;;;;;;;;11.40;99.90;;;;;;4911035;29;20362;-81
2023/05/30 06:59:08;;;;;;;;;;;11.30;99.90;;;;;;4929801;29;19927;-79
2023/05/30 07:01:33;;;;;;;;;;;11.40;99.90;;;;;;4931260;29;19935;-81
2023/05/30 07:03:59;;;;;;;;;;;11.40;99.90;;;;;;4918452;29;19933;-80
2023/05/30 07:06:25;;;;;;;;;;;11.50;99.90;;;;;;4928144;29;20293;-80
2023/05/30 07:08:50;;;;;;;;;;;11.60;99.90;;;;;;4896962;29;19952;-81
2023/05/30 07:11:16;;;;;;;;;;;11.60;99.90;;;;;;4930645;29;19927;-81
2023/05/30 07:13:42;;;;;;;;;;;11.70;99.90;;;;;;4930061;29;19935;-80
2023/05/30 07:16:07;;;;;;;;;;;11.60;99.90;;;;;;4918485;29;19940;-80
2023/05/30 07:18:33;;;;;;;;;;;11.70;99.90;;;;;;4910412;29;19927;-79
2023/05/30 07:20:59;;;;;;;;;;;11.70;99.90;;;;;;4915775;29;19986;-79
2023/05/30 07:23:24;;;;;;;;;;;11.70;99.90;;;;;;4920765;29;19982;-79
2023/05/30 07:25:50;;;;;;;;;;;11.70;99.90;;;;;;4925785;29;19946;-79
2023/05/30 07:28:15;;;;;;;;;;;11.60;99.90;;;;;;4917758;29;19935;-79
2023/05/30 07:30:41;;;;;;;;;;;11.60;99.90;;;;;;4915037;29;19983;-78
2023/05/30 07:33:06;;;;;;;;;;;11.60;99.90;;;;;;4905760;29;19928;-80
2023/05/30 07:35:32;;;;;;;;;;;11.60;99.90;;;;;;4917161;29;19927;-80
2023/05/30 07:37:57;;;;;;;;;;;11.50;99.90;;;;;;4933938;29;19942;-79
2023/05/30 07:40:23;;;;;;;;;;;11.50;99.90;;;;;;4916994;29;19941;-79
2023/05/30 07:42:48;;;;;;;;;;;11.50;99.90;;;;;;4927712;29;20388;-79
2023/05/30 07:45:14;;;;;;;;;;;11.50;99.90;;;;;;4921535;29;19934;-79
2023/05/30 07:47:40;;;;;;;;;;;11.60;99.90;;;;;;4910418;29;19979;-80
2023/05/30 07:50:06;;;;;;;;;;;12.00;99.90;;;;;;4917043;29;19934;-79
2023/05/30 07:52:32;;;;;;;;;;;11.70;99.90;;;;;;4904168;29;19943;-79
2023/05/30 07:54:58;;;;;;;;;;;11.80;99.90;;;;;;4888170;29;20018;-79
2023/05/30 07:57:23;;;;;;;;;;;11.90;99.90;;;;;;4905382;29;19974;-80
2023/05/30 07:59:49;;;;;;;;;;;11.80;99.90;;;;;;4905664;29;19934;-79
2023/05/30 08:02:15;;;;;;;;;;;11.90;99.90;;;;;;4919334;29;19927;-79
2023/05/30 08:04:41;;;;;;;;;;;11.90;99.90;;;;;;4928157;29;19950;-79
2023/05/30 08:07:06;;;;;;;;;;;12.00;99.90;;;;;;4929064;29;19927;-80
2023/05/30 08:09:32;;;;;;;;;;;12.00;99.90;;;;;;4911719;29;19967;-80
2023/05/30 08:11:58;;;;;;;;;;;11.90;99.90;;;;;;4930303;29;19954;-79
2023/05/30 08:14:23;;;;;;;;;;;11.90;99.90;;;;;;4920918;29;19952;-80
2023/05/30 08:16:49;;;;;;;;;;;12.00;99.90;;;;;;4910379;29;19927;-81
2023/05/30 08:19:15;;;;;;;;;;;12.10;99.90;;;;;;4907596;29;19923;-80
2023/05/30 08:21:43;;;;;;;;;;;12.10;99.90;;;;;;4913027;29;19935;-79
2023/05/30 08:24:11;;;;;;;;;;;12.10;99.90;;;;;;4911658;29;20400;-79
2023/05/30 08:26:39;;;;;;;;;;;12.00;99.90;;;;;;4930933;29;19927;-79
2023/05/30 08:29:05;;;;;;;;;;;12.20;99.90;;;;;;4901558;29;20350;-80
2023/05/30 08:31:30;;;;;;;;;;;12.10;99.90;;;;;;4911800;29;19935;-80
2023/05/30 08:33:56;;;;;;;;;;;12.20;99.90;;;;;;4913757;29;19931;-80
2023/05/30 08:36:22;;;;;;;;;;;12.30;99.90;;;;;;4916474;29;19938;-80
2023/05/30 08:38:53;;;;;;;;;;;12.40;99.90;;;;;;4935556;29;19931;-81
2023/05/30 08:41:20;;;;;;;;;;;12.60;99.90;;;;;;4903071;29;19923;-79
2023/05/30 08:43:45;;;;;;;;;;;13.00;99.90;;;;;;4927484;29;19959;-81
2023/05/30 08:46:12;;;;;;;;;;;13.30;99.90;;;;;;4929315;29;19934;-80
2023/05/30 08:48:38;;;;;;;;;;;13.50;99.90;;;;;;4929998;29;19931;-80
2023/05/30 08:51:04;;;;;;;;;;;13.50;99.90;;;;;;4909496;29;19928;-80
2023/05/30 08:53:32;;;;;;;;;;;13.50;99.90;;;;;;4929438;29;19934;-80
2023/05/30 08:56:11;;;;;;;;;;;13.70;99.90;;;;;;4931342;29;19982;-81
2023/05/30 08:58:39;;;;;;;;;;;13.70;99.90;;;;;;4924019;29;19931;-80
2023/05/30 09:01:05;;;;;;;;;;;13.60;99.90;;;;;;4895131;29;19952;-80
2023/05/30 09:03:32;;;;;;;;;;;13.60;99.90;;;;;;4911737;29;19928;-82
2023/05/30 09:05:58;;;;;;;;;;;13.60;99.90;;;;;;4916348;29;19931;-80
2023/05/30 09:08:25;;;;;;;;;;;13.60;99.90;;;;;;4929342;29;19931;-80
2023/05/30 09:10:51;;;;;;;;;;;13.60;99.90;;;;;;4931382;29;19927;-80
2023/05/30 09:13:17;;;;;;;;;;;13.60;99.90;;;;;;4927818;29;19934;-80
2023/05/30 09:15:43;;;;;;;;;;;13.50;99.90;;;;;;4928527;29;20354;-80
2023/05/30 09:18:09;;;;;;;;;;;13.50;99.90;;;;;;4932663;29;19934;-80
2023/05/30 09:20:37;;;;;;;;;;;13.50;99.90;;;;;;4925310;29;20382;-80
2023/05/30 09:23:02;;;;;;;;;;;13.60;99.90;;;;;;4930258;29;19969;-80
2023/05/30 09:25:39;;;;;;;;;;;13.50;99.90;;;;;;4891931;29;19983;-79
2023/05/30 09:28:05;;;;;;;;;;;13.40;99.90;;;;;;4906271;29;20003;-79
2023/05/30 09:30:30;;;;;;;;;;;13.40;99.90;;;;;;4891503;29;19927;-79
2023/05/30 09:33:00;;;;;;;;;;;13.30;99.90;;;;;;4928347;29;19931;-79
2023/05/30 09:35:25;;;;;;;;;;;13.20;99.90;;;;;;4931243;29;19927;-80
2023/05/30 09:37:51;;;;;;;;;;;13.20;99.90;;;;;;4937208;29;19930;-80
2023/05/30 09:40:17;;;;;;;;;;;13.60;99.90;;;;;;4929846;29;20386;-79
2023/05/30 09:42:42;;;;;;;;;;;13.00;99.90;;;;;;4918676;29;20386;-78
2023/05/30 09:45:12;;;;;;;;;;;13.00;99.90;;;;;;4902510;29;19931;-79
2023/05/30 09:47:48;;;;;;;;;;;12.80;99.90;;;;;;4918906;29;19938;-79
2023/05/30 09:50:17;;;;;;;;;;;12.80;99.90;;;;;;4933595;29;19974;-79
2023/05/30 09:52:44;;;;;;;;;;;12.80;99.90;;;;;;4935173;29;19931;-79
2023/05/30 09:55:15;;;;;;;;;;;12.80;99.90;;;;;;4932042;29;19927;-80
2023/05/30 09:57:45;;;;;;;;;;;12.90;99.90;;;;;;4933290;29;19959;-79
2023/05/30 10:00:13;;;;;;;;;;;12.90;99.90;;;;;;4931732;29;20429;-79
2023/05/30 10:02:39;;;;;;;;;;;13.00;99.90;;;;;;4913163;29;20322;-79
2023/05/30 10:05:06;;;;;;;;;;;13.10;99.90;;;;;;4910374;29;19927;-79
2023/05/30 10:07:32;;;;;;;;;;;13.30;99.90;;;;;;4932733;29;19927;-79
2023/05/30 10:09:58;;;;;;;;;;;13.40;99.90;;;;;;4916847;29;19927;-79
2023/05/30 10:12:24;;;;;;;;;;;13.50;99.90;;;;;;4935947;29;19937;-79
2023/05/30 10:14:50;;;;;;;;;;;13.40;99.90;;;;;;4935414;29;19927;-79
2023/05/30 10:17:17;;;;;;;;;;;13.50;99.90;;;;;;4926349;29;19982;-80
2023/05/30 10:19:51;;;;;;;;;;;13.50;99.90;;;;;;4931749;29;19927;-80
2023/05/30 10:22:18;;;;;;;;;;;13.50;99.90;;;;;;4930485;29;20297;-79
2023/05/30 10:24:46;;;;;;;;;;;13.40;99.90;;;;;;4912349;29;19935;-80
2023/05/30 10:27:17;;;;;;;;;;;13.40;99.90;;;;;;4915245;29;20466;-81
2023/05/30 10:29:47;;;;;;;;;;;13.60;99.90;;;;;;4926866;29;19974;-80
2023/05/30 10:32:24;;;;;;;;;;;13.60;99.90;;;;;;4936981;29;19978;-80
2023/05/30 10:35:01;;;;;;;;;;;13.70;99.90;;;;;;4919892;29;19927;-80
2023/05/30 10:37:27;;;;;;;;;;;13.70;99.90;;;;;;4938210;29;19927;-80
2023/05/30 10:40:07;;;;;;;;;;;13.80;99.90;;;;;;4936445;29;19934;-80
2023/05/30 10:42:51;;;;;;;;;;;13.60;99.90;;;;;;4936745;29;19935;-80
2023/05/30 10:45:18;;;;;;;;;;;13.50;99.90;;;;;;4900918;29;19930;-79
2023/05/30 10:48:06;;;;;;;;;;;13.50;99.90;;;;;;4930275;29;19911;-80
2023/05/30 10:50:37;;;;;;;;;;;13.50;99.90;;;;;;4927880;29;19950;-80
2023/05/30 10:53:11;;;;;;;;;;;13.50;99.90;;;;;;4921551;29;19915;-80
2023/05/30 10:55:36;;;;;;;;;;;13.70;99.90;;;;;;4931057;29;19935;-80
2023/05/30 10:58:22;;;;;;;;;;;14.10;99.90;;;;;;4917792;29;19931;-80
2023/05/30 11:00:49;;;;;;;;;;;14.00;99.90;;;;;;4917284;29;20555;-80
2023/05/30 11:03:34;;;;;;;;;;;14.10;99.90;;;;;;4924397;29;19931;-80
2023/05/30 11:06:00;;;;;;;;;;;14.00;99.90;;;;;;4936908;29;19927;-80
2023/05/30 11:08:25;;;;;;;;;;;13.90;99.90;;;;;;4937494;29;20016;-80
2023/05/30 11:10:55;;;;;;;;;;;13.80;99.90;;;;;;4936106;29;19927;-80
2023/05/30 11:13:25;;;;;;;;;;;13.80;99.90;;;;;;4935477;29;19927;-80
2023/05/30 11:15:51;;;;;;;;;;;13.80;99.90;;;;;;4934958;29;19934;-80
2023/05/30 11:18:17;;;;;;;;;;;13.80;99.90;;;;;;4917628;29;19990;-80
2023/05/30 11:20:52;;;;;;;;;;;13.90;99.90;;;;;;4935401;29;19927;-80
2023/05/30 11:23:18;;;;;;;;;;;13.90;99.90;;;;;;4936463;29;19931;-80
2023/05/30 11:25:45;;;;;;;;;;;14.00;99.90;;;;;;4935923;29;19927;-80
2023/05/30 11:28:14;;;;;;;;;;;14.00;99.90;;;;;;4930377;29;19967;-80
2023/05/30 11:30:46;;;;;;;;;;;14.00;99.90;;;;;;4904660;29;19931;-80
2023/05/30 11:33:13;;;;;;;;;;;13.90;99.90;;;;;;4929518;29;19928;-79
2023/05/30 11:35:38;;;;;;;;;;;13.80;99.90;;;;;;4924152;29;20001;-80
2023/05/30 11:38:06;;;;;;;;;;;13.80;99.90;;;;;;4927663;29;19927;-79
2023/05/30 11:40:31;;;;;;;;;;;13.90;99.90;;;;;;4926521;29;19971;-79
2023/05/30 11:42:57;;;;;;;;;;;14.00;99.90;;;;;;4929848;29;19927;-81
2023/05/30 11:45:24;;;;;;;;;;;14.40;99.90;;;;;;4931955;29;19952;-80
2023/05/30 11:47:49;;;;;;;;;;;14.30;99.90;;;;;;4926025;29;19911;-81
2023/05/30 11:50:15;;;;;;;;;;;14.40;99.90;;;;;;4908020;29;19955;-79
2023/05/30 11:52:41;;;;;;;;;;;14.40;99.90;;;;;;4933048;29;19935;-80
2023/05/30 11:55:07;;;;;;;;;;;14.40;99.90;;;;;;4929581;29;19938;-80
2023/05/30 11:57:33;;;;;;;;;;;14.40;99.90;;;;;;4926437;29;19927;-80
2023/05/30 11:59:59;;;;;;;;;;;14.40;99.90;;;;;;4903360;29;19927;-80
2023/05/30 12:02:28;;;;;;;;;;;14.20;99.90;;;;;;4928435;29;19934;-80
2023/05/30 12:05:01;;;;;;;;;;;14.20;99.90;;;;;;4920807;29;19970;-79
2023/05/30 12:07:27;;;;;;;;;;;14.20;99.90;;;;;;4919532;29;19935;-79
2023/05/30 12:09:53;;;;;;;;;;;14.10;99.90;;;;;;4924898;29;19924;-78
2023/05/30 12:12:18;;;;;;;;;;;14.00;99.90;;;;;;4914969;29;19927;-80
2023/05/30 12:14:44;;;;;;;;;;;13.90;99.90;;;;;;4894468;29;19931;-79
2023/05/30 12:17:22;;;;;;;;;;;13.90;99.90;;;;;;4922479;29;19927;-79
2023/05/30 12:19:55;;;;;;;;;;;14.10;99.90;;;;;;4924011;29;19959;-81
2023/05/30 12:22:22;;;;;;;;;;;14.40;99.90;;;;;;4926735;29;19927;-79
2023/05/30 12:24:49;;;;;;;;;;;14.60;99.90;;;;;;4925483;29;19931;-81
2023/05/30 12:27:16;;;;;;;;;;;14.80;99.90;;;;;;4927132;29;19926;-81
2023/05/30 12:29:42;;;;;;;;;;;14.80;99.90;;;;;;4927004;29;20014;-79
2023/05/30 12:32:08;;;;;;;;;;;14.90;99.90;;;;;;4933394;29;19947;-79
2023/05/30 12:34:38;;;;;;;;;;;15.00;99.90;;;;;;4931194;29;19997;-81
2023/05/30 12:37:06;;;;;;;;;;;14.90;99.90;;;;;;4927160;29;19932;-79
2023/05/30 12:39:32;;;;;;;;;;;14.90;99.90;;;;;;4898518;29;20306;-79
2023/05/30 12:41:58;;;;;;;;;;;15.00;99.90;;;;;;4925209;29;19931;-80
2023/05/30 12:44:23;;;;;;;;;;;14.80;99.90;;;;;;4930416;29;19927;-79
2023/05/30 12:46:49;;;;;;;;;;;14.80;99.90;;;;;;4904485;29;19931;-80
2023/05/30 12:49:15;;;;;;;;;;;14.70;99.90;;;;;;4925265;29;19934;-79
2023/05/30 12:51:41;;;;;;;;;;;14.80;99.90;;;;;;4914459;29;19927;-78
2023/05/30 12:54:10;;;;;;;;;;;14.60;99.90;;;;;;4921536;29;19966;-80
2023/05/30 12:56:35;;;;;;;;;;;14.60;99.90;;;;;;4923777;29;19936;-81
2023/05/30 12:59:02;;;;;;;;;;;14.60;99.90;;;;;;4920080;29;19928;-79
2023/05/30 13:01:28;;;;;;;;;;;14.70;99.90;;;;;;4910526;29;19931;-81
2023/05/30 13:03:54;;;;;;;;;;;14.60;99.90;;;;;;4916152;29;20017;-80
2023/05/30 13:06:20;;;;;;;;;;;14.60;99.90;;;;;;4919480;29;19975;-81
2023/05/30 13:08:45;;;;;;;;;;;14.70;99.90;;;;;;4906678;29;20109;-79
2023/05/30 13:11:11;;;;;;;;;;;14.40;99.90;;;;;;4907870;29;19931;-79
2023/05/30 13:13:36;;;;;;;;;;;14.50;99.90;;;;;;4908432;29;19927;-80
2023/05/30 13:16:02;;;;;;;;;;;14.50;99.90;;;;;;4910497;29;19935;-80
2023/05/30 13:18:27;;;;;;;;;;;14.50;99.90;;;;;;4907581;29;19931;-80
2023/05/30 13:20:53;;;;;;;;;;;14.50;99.90;;;;;;4928052;29;20290;-79
2023/05/30 13:23:18;;;;;;;;;;;14.50;99.90;;;;;;4896697;29;19934;-75
2023/05/30 13:25:44;;;;;;;;;;;14.60;99.90;;;;;;4914375;29;19927;-77
2023/05/30 13:28:09;;;;;;;;;;;14.60;99.90;;;;;;4917247;29;20373;-76
2023/05/30 13:30:35;;;;;;;;;;;14.50;99.90;;;;;;4900504;29;20010;-76
2023/05/30 13:33:00;;;;;;;;;;;14.40;99.90;;;;;;4898363;29;19938;-76
2023/05/30 13:35:26;;;;;;;;;;;15.00;99.90;;;;;;4906536;29;20367;-76
2023/05/30 13:37:51;;;;;;;;;;;14.50;99.90;;;;;;4934958;29;19933;-76
2023/05/30 13:40:17;;;;;;;;;;;14.50;99.90;;;;;;4924777;29;19955;-75
2023/05/30 13:42:42;;;;;;;;;;;14.50;99.90;;;;;;4899560;29;20386;-75
2023/05/30 13:45:08;;;;;;;;;;;14.90;99.90;;;;;;4893600;29;19931;-76
2023/05/30 13:47:34;;;;;;;;;;;14.60;99.90;;;;;;4890849;29;19927;-77
2023/05/30 13:49:59;;;;;;;;;;;14.70;99.90;;;;;;4921085;29;19934;-76
2023/05/30 13:52:25;;;;;;;;;;;14.60;99.90;;;;;;4921518;29;20278;-76
2023/05/30 13:54:51;;;;;;;;;;;14.60;99.90;;;;;;4921367;29;19950;-77
2023/05/30 13:57:16;;;;;;;;;;;14.60;99.90;;;;;;4907011;29;19971;-77
2023/05/30 13:59:42;;;;;;;;;;;14.80;99.90;;;;;;4901270;29;19928;-77
2023/05/30 14:02:08;;;;;;;;;;;14.60;99.90;;;;;;4916829;29;19931;-76
2023/05/30 14:04:33;;;;;;;;;;;14.60;99.90;;;;;;4921595;29;19934;-76
2023/05/30 14:06:59;;;;;;;;;;;14.60;99.90;;;;;;4901917;29;19935;-76
2023/05/30 14:09:25;;;;;;;;;;;14.50;99.90;;;;;;4892779;29;19935;-76
2023/05/30 14:11:50;;;;;;;;;;;14.50;99.90;;;;;;4916672;29;20017;-76
2023/05/30 14:14:16;;;;;;;;;;;14.50;99.90;;;;;;4921181;29;19935;-76